Time;durP1;ratioP1;P1;durP2;ratioP2;P2;SDS_P1;SDS_P2;PMS_P1;PMS_P2;Temp;Humidity;BMP_temperature;BMP_pressure;BME280_temperature;BME280_humidity;BME280_pressure;Samples;Min_cycle;Max_cycle;Signal;HPM_P1;HPM_P2
2023/04/20 00:01:46;;;;;;;7.03;4.28;;;17.00;40.40;;;;;;6128315;23;20013;-83
2023/04/20 00:04:14;;;;;;;6.78;4.85;;;17.00;40.30;;;;;;6153171;23;20020;-82
2023/04/20 00:06:41;;;;;;;5.75;4.10;;;17.00;40.40;;;;;;6179068;23;20009;-82
2023/04/20 00:09:07;;;;;;;7.70;4.30;;;17.00;40.30;;;;;;6179586;23;20039;-83
2023/04/20 00:11:33;;;;;;;5.55;4.00;;;16.90;40.40;;;;;;6153462;23;20021;-83
2023/04/20 00:13:59;;;;;;;8.10;4.60;;;16.90;40.50;;;;;;6152766;23;20354;-82
2023/04/20 00:16:25;;;;;;;7.43;4.10;;;16.90;40.50;;;;;;6152899;23;20021;-82
2023/04/20 00:18:51;;;;;;;5.13;4.32;;;16.90;40.60;;;;;;6179146;23;20017;-85
2023/04/20 00:21:20;;;;;;;5.35;4.53;;;16.90;41.00;;;;;;6180459;23;20096;-84
2023/04/20 00:23:46;;;;;;;8.07;5.00;;;16.90;40.60;;;;;;6153210;23;20475;-83
2023/04/20 00:26:12;;;;;;;5.82;4.53;;;16.90;40.60;;;;;;6153195;23;20024;-85
2023/04/20 00:28:40;;;;;;;7.22;4.13;;;16.90;40.60;;;;;;6179710;23;20052;-85
2023/04/20 00:31:06;;;;;;;5.95;4.22;;;16.90;40.70;;;;;;6128916;23;20013;-85
2023/04/20 00:33:32;;;;;;;6.47;4.40;;;16.80;40.70;;;;;;6153106;23;20100;-85
2023/04/20 00:35:59;;;;;;;6.85;4.00;;;16.80;40.70;;;;;;6105121;23;20556;-85
2023/04/20 00:38:26;;;;;;;5.47;4.32;;;16.80;40.80;;;;;;6128555;23;20152;-85
2023/04/20 00:40:55;;;;;;;7.25;4.38;;;16.80;40.90;;;;;;6152975;23;20017;-83
2023/04/20 00:43:22;;;;;;;6.32;4.75;;;16.80;41.00;;;;;;6152277;23;20013;-83
2023/04/20 00:45:51;;;;;;;7.18;4.35;;;16.80;41.00;;;;;;6128293;23;20044;-83
2023/04/20 00:48:17;;;;;;;5.50;4.03;;;16.80;40.90;;;;;;6128792;23;20044;-84
2023/04/20 00:50:44;;;;;;;5.45;4.18;;;16.80;41.00;;;;;;6153166;23;20032;-84
2023/04/20 00:53:11;;;;;;;7.00;4.32;;;16.70;40.90;;;;;;6132358;23;20025;-85
2023/04/20 00:55:38;;;;;;;6.47;4.57;;;16.70;41.00;;;;;;6209468;23;20029;-85
2023/04/20 00:58:05;;;;;;;5.30;4.22;;;16.70;41.00;;;;;;6158453;23;20028;-84
2023/04/20 01:00:32;;;;;;;9.85;4.63;;;16.70;41.00;;;;;;6182375;23;20016;-83
2023/04/20 01:02:58;;;;;;;7.18;4.72;;;16.70;41.00;;;;;;6183092;23;20012;-84
2023/04/20 01:05:25;;;;;;;6.15;4.45;;;16.70;41.10;;;;;;6209669;23;20032;-85
2023/04/20 01:07:51;;;;;;;6.75;4.60;;;16.70;41.10;;;;;;6157953;23;20492;-85
2023/04/20 01:10:18;;;;;;;9.10;4.78;;;16.70;41.10;;;;;;6157856;23;20522;-83
2023/04/20 01:12:44;;;;;;;7.80;4.45;;;16.70;41.20;;;;;;6208841;23;20016;-83
2023/04/20 01:15:10;;;;;;;6.00;4.40;;;16.70;41.20;;;;;;6209486;23;20012;-83
2023/04/20 01:17:38;;;;;;;5.70;4.60;;;16.60;41.10;;;;;;6182518;23;20017;-83
2023/04/20 01:20:11;;;;;;;6.10;4.40;;;16.60;41.20;;;;;;6169378;23;20028;-83
2023/04/20 01:23:03;;;;;;;7.53;4.57;;;16.60;41.20;;;;;;6183170;23;20021;-82
2023/04/20 01:25:29;;;;;;;8.32;5.05;;;16.60;41.20;;;;;;6203895;23;20162;-83
2023/04/20 01:27:55;;;;;;;6.35;4.78;;;16.60;41.30;;;;;;6183714;23;20013;-82
2023/04/20 01:30:21;;;;;;;7.78;4.65;;;16.60;41.30;;;;;;6184856;23;20479;-82
2023/04/20 01:32:47;;;;;;;7.43;4.40;;;16.50;41.30;;;;;;6159193;23;20016;-82
2023/04/20 01:35:15;;;;;;;7.68;4.75;;;16.60;41.40;;;;;;6210178;23;20031;-81
2023/04/20 01:37:41;;;;;;;6.60;4.68;;;16.50;41.40;;;;;;6183817;23;20087;-82
2023/04/20 01:40:09;;;;;;;6.45;4.68;;;16.50;41.50;;;;;;6159218;23;20018;-83
2023/04/20 01:42:35;;;;;;;7.60;4.60;;;16.50;41.60;;;;;;6183780;23;20063;-83
2023/04/20 01:45:03;;;;;;;6.53;4.53;;;16.50;41.60;;;;;;6184872;23;20004;-83
2023/04/20 01:47:31;;;;;;;6.57;4.38;;;16.50;41.80;;;;;;6183977;23;20016;-83
2023/04/20 01:49:57;;;;;;;6.78;4.75;;;16.50;41.70;;;;;;6158998;23;20472;-83
2023/04/20 01:52:24;;;;;;;6.53;4.63;;;16.40;41.80;;;;;;6184031;23;20020;-83
2023/04/20 01:54:50;;;;;;;4.93;4.40;;;16.40;42.00;;;;;;6183912;23;20027;-84
2023/04/20 01:57:16;;;;;;;7.57;4.57;;;16.40;42.10;;;;;;6159578;23;20012;-81
2023/04/20 01:59:42;;;;;;;5.18;4.47;;;16.40;42.10;;;;;;6210567;23;20475;-82
2023/04/20 02:02:08;;;;;;;5.97;4.60;;;16.40;42.20;;;;;;6183918;23;20460;-82
2023/04/20 02:04:34;;;;;;;10.98;5.03;;;16.40;42.10;;;;;;6210614;23;20036;-82
2023/04/20 02:07:00;;;;;;;8.07;4.80;;;16.40;42.20;;;;;;6159359;23;20016;-81
2023/04/20 02:09:26;;;;;;;6.63;4.63;;;16.40;42.10;;;;;;6211229;23;20015;-83
2023/04/20 02:11:53;;;;;;;7.35;4.90;;;16.40;42.10;;;;;;6184312;23;20100;-83
2023/04/20 02:14:19;;;;;;;7.78;5.07;;;16.40;42.20;;;;;;6210252;23;20047;-82
2023/04/20 02:16:45;;;;;;;7.30;4.78;;;16.30;42.10;;;;;;6184267;23;20606;-83
2023/04/20 02:19:11;;;;;;;5.97;4.57;;;16.40;42.20;;;;;;6183753;23;20024;-82
2023/04/20 02:21:37;;;;;;;6.85;4.97;;;16.30;42.30;;;;;;6158771;23;20017;-83
2023/04/20 02:24:04;;;;;;;5.38;4.72;;;16.30;42.30;;;;;;6159799;23;20514;-82
2023/04/20 02:26:30;;;;;;;7.57;4.45;;;16.30;42.30;;;;;;6184204;23;20029;-82
2023/04/20 02:28:56;;;;;;;7.25;4.97;;;16.30;42.40;;;;;;6183569;23;20032;-83
2023/04/20 02:31:22;;;;;;;8.93;5.00;;;16.30;42.50;;;;;;6183818;23;20367;-83
2023/04/20 02:33:48;;;;;;;7.32;5.07;;;16.30;42.50;;;;;;6158688;23;20099;-83
2023/04/20 02:36:14;;;;;;;7.78;5.03;;;16.30;42.50;;;;;;6211288;23;20018;-82
2023/04/20 02:38:40;;;;;;;6.93;4.85;;;16.20;42.50;;;;;;6183831;23;20392;-83
2023/04/20 02:41:07;;;;;;;8.30;5.45;;;16.20;42.70;;;;;;6183915;23;20031;-83
2023/04/20 02:43:35;;;;;;;8.38;4.97;;;16.30;42.80;;;;;;6183751;23;20159;-83
2023/04/20 02:46:02;;;;;;;8.25;5.13;;;16.20;42.90;;;;;;6159435;23;20015;-83
2023/04/20 02:48:28;;;;;;;6.10;5.35;;;16.20;43.00;;;;;;6211622;23;20348;-85
2023/04/20 02:50:56;;;;;;;6.78;4.57;;;16.20;43.00;;;;;;6159171;23;20027;-84
2023/04/20 02:53:23;;;;;;;7.60;4.80;;;16.20;43.10;;;;;;6210346;23;20368;-83
2023/04/20 02:56:06;;;;;;;7.72;5.50;;;16.20;43.10;;;;;;6184316;23;20024;-84
2023/04/20 02:58:43;;;;;;;6.55;4.68;;;16.20;43.00;;;;;;6183956;23;20377;-84
2023/04/20 03:01:21;;;;;;;7.80;4.75;;;16.10;43.00;;;;;;6183860;23;20023;-83
2023/04/20 03:03:55;;;;;;;8.18;4.90;;;16.10;43.00;;;;;;6158935;23;20020;-83
2023/04/20 03:06:21;;;;;;;9.80;5.00;;;16.20;43.20;;;;;;6184527;23;20009;-84
2023/04/20 03:08:53;;;;;;;8.35;5.30;;;16.10;43.10;;;;;;6158934;23;20016;-85
2023/04/20 03:11:42;;;;;;;6.03;5.18;;;16.10;43.10;;;;;;6198326;23;20043;-85
2023/04/20 03:14:11;;;;;;;9.52;5.53;;;16.10;43.10;;;;;;6162688;23;20020;-86
2023/04/20 03:16:37;;;;;;;9.65;5.25;;;16.10;43.10;;;;;;6159240;23;20017;-87
2023/04/20 03:19:04;;;;;;;7.10;5.32;;;16.10;43.30;;;;;;6134317;23;20062;-85
2023/04/20 03:21:30;;;;;;;8.90;5.43;;;16.10;43.30;;;;;;6159112;23;20012;-85
2023/04/20 03:23:56;;;;;;;9.10;5.22;;;16.00;43.30;;;;;;6158219;23;20099;-85
2023/04/20 03:26:22;;;;;;;10.20;5.20;;;16.00;43.20;;;;;;6182856;23;20476;-83
2023/04/20 03:29:24;;;;;;;8.05;5.20;;;16.00;43.20;;;;;;6144592;23;20024;-82
2023/04/20 03:31:50;;;;;;;7.50;5.35;;;16.00;43.20;;;;;;6183084;23;20029;-83
2023/04/20 03:34:16;;;;;;;10.35;5.18;;;16.00;43.20;;;;;;6183110;23;20067;-83
2023/04/20 03:36:43;;;;;;;6.85;4.75;;;16.00;43.20;;;;;;6158655;23;20013;-84
2023/04/20 03:39:10;;;;;;;7.97;5.03;;;16.00;43.20;;;;;;6134795;23;20321;-85
2023/04/20 03:41:36;;;;;;;7.28;5.60;;;16.00;43.20;;;;;;6134085;23;20424;-86
2023/04/20 03:44:02;;;;;;;10.38;5.40;;;16.00;43.20;;;;;;6157503;23;20058;-79
2023/04/20 03:46:29;;;;;;;10.55;5.47;;;16.00;43.30;;;;;;6182895;23;20483;-85
2023/04/20 03:48:56;;;;;;;8.88;5.22;;;16.00;43.40;;;;;;6156392;23;20019;-80
2023/04/20 03:51:22;;;;;;;7.43;5.60;;;16.00;43.40;;;;;;6179771;23;20009;-80
2023/04/20 03:53:48;;;;;;;8.63;5.25;;;16.00;43.40;;;;;;6155286;23;20029;-80
2023/04/20 03:56:14;;;;;;;8.27;5.03;;;16.00;43.40;;;;;;6181399;23;20017;-79
2023/04/20 03:58:41;;;;;;;8.95;5.20;;;16.00;43.50;;;;;;6157783;23;20419;-80
2023/04/20 04:01:18;;;;;;;7.95;5.38;;;16.00;43.50;;;;;;6159470;23;20472;-80
2023/04/20 04:03:47;;;;;;;6.47;5.00;;;16.00;43.60;;;;;;6180754;23;20016;-80
2023/04/20 04:06:13;;;;;;;9.23;5.45;;;16.00;43.50;;;;;;6182312;23;20087;-80
2023/04/20 04:08:40;;;;;;;6.97;4.95;;;16.10;43.60;;;;;;6208560;23;20507;-80
2023/04/20 04:11:06;;;;;;;5.93;4.90;;;16.00;43.60;;;;;;6158516;23;20030;-81
2023/04/20 04:13:32;;;;;;;6.78;5.30;;;16.00;43.60;;;;;;6158125;23;20020;-81
2023/04/20 04:15:58;;;;;;;8.88;5.05;;;16.00;43.60;;;;;;6133837;23;20080;-81
2023/04/20 04:18:31;;;;;;;8.25;5.05;;;16.00;43.60;;;;;;6159689;23;20300;-81
2023/04/20 04:20:58;;;;;;;5.95;4.57;;;16.00;43.60;;;;;;6158556;23;20510;-82
2023/04/20 04:23:24;;;;;;;6.10;4.70;;;16.00;43.60;;;;;;6182764;23;20033;-81
2023/04/20 04:26:04;;;;;;;9.45;4.88;;;16.00;43.60;;;;;;6183053;23;20017;-80
2023/04/20 04:28:32;;;;;;;5.47;4.70;;;16.10;43.70;;;;;;6158023;23;20043;-80
2023/04/20 04:31:11;;;;;;;7.05;5.03;;;16.10;43.70;;;;;;6182860;23;20013;-81
2023/04/20 04:33:37;;;;;;;6.97;4.80;;;16.10;43.70;;;;;;6182356;23;20008;-81
2023/04/20 04:36:05;;;;;;;8.05;4.80;;;16.10;43.80;;;;;;6183296;23;20044;-79
2023/04/20 04:38:33;;;;;;;5.60;4.45;;;16.20;43.90;;;;;;6181436;23;20349;-82
2023/04/20 04:40:59;;;;;;;5.75;4.30;;;16.30;43.90;;;;;;6183074;23;20028;-85
2023/04/20 04:43:26;;;;;;;9.40;4.95;;;16.40;44.10;;;;;;6133902;23;20551;-80
2023/04/20 04:46:09;;;;;;;5.97;5.00;;;16.50;44.40;;;;;;6159124;23;20020;-84
2023/04/20 04:48:42;;;;;;;10.38;5.53;;;16.60;44.60;;;;;;6182701;23;20035;-83
2023/04/20 04:51:08;;;;;;;8.98;4.75;;;16.70;44.70;;;;;;6184995;23;20043;-88
2023/04/20 04:53:35;;;;;;;8.43;5.03;;;16.80;44.90;;;;;;6159008;23;20548;-86
2023/04/20 04:56:02;;;;;;;8.23;4.85;;;16.90;45.00;;;;;;6211131;23;20367;-86
2023/04/20 04:58:28;;;;;;;7.53;5.47;;;17.10;45.20;;;;;;6186013;23;20103;-89
2023/04/20 05:00:54;;;;;;;7.60;5.18;;;17.10;45.00;;;;;;6161101;23;20043;-86
2023/04/20 05:03:20;;;;;;;5.90;4.47;;;17.20;45.00;;;;;;6216196;23;20095;-86
2023/04/20 05:05:46;;;;;;;9.80;4.65;;;17.30;44.70;;;;;;6189835;23;20036;-86
2023/04/20 05:08:12;;;;;;;7.28;5.15;;;17.40;44.70;;;;;;6212421;23;20017;-86
2023/04/20 05:10:38;;;;;;;7.85;4.78;;;17.50;44.50;;;;;;6161866;23;20424;-87
2023/04/20 05:13:04;;;;;;;6.40;4.47;;;17.60;44.50;;;;;;6213051;23;20096;-86
2023/04/20 05:15:30;;;;;;;5.38;4.32;;;17.80;44.60;;;;;;6186100;23;20148;-84
2023/04/20 05:17:56;;;;;;;7.30;4.78;;;17.90;44.60;;;;;;6188985;23;20028;-85
2023/04/20 05:20:22;;;;;;;7.10;4.78;;;18.00;44.50;;;;;;6224158;23;20020;-86
2023/04/20 05:22:48;;;;;;;8.13;4.60;;;18.10;44.40;;;;;;6200751;23;20029;-87
2023/04/20 05:25:14;;;;;;;5.25;4.03;;;18.20;44.20;;;;;;6188820;23;20469;-87
2023/04/20 05:27:40;;;;;;;6.30;4.30;;;18.30;44.10;;;;;;6186151;23;20096;-86
2023/04/20 05:30:07;;;;;;;5.80;4.60;;;18.40;44.60;;;;;;6214060;23;20452;-87
2023/04/20 05:32:33;;;;;;;8.48;4.38;;;18.50;43.90;;;;;;6188211;23;20012;-85
2023/04/20 05:34:59;;;;;;;5.50;4.43;;;18.60;43.90;;;;;;6161529;23;20089;-88
2023/04/20 05:37:26;;;;;;;7.50;4.93;;;18.60;43.80;;;;;;6161124;23;20027;-86
2023/04/20 05:39:52;;;;;;;4.78;4.28;;;18.80;43.70;;;;;;6212083;23;20193;-87
2023/04/20 05:42:18;;;;;;;5.55;4.05;;;18.90;43.70;;;;;;6184831;23;20464;-83
2023/04/20 05:44:44;;;;;;;4.63;4.15;;;19.00;43.60;;;;;;6210868;23;20021;-82
2023/04/20 05:47:10;;;;;;;7.68;4.90;;;19.10;43.60;;;;;;6183957;23;20360;-81
2023/04/20 05:49:35;;;;;;;9.32;4.85;;;19.20;42.90;;;;;;6209137;23;20017;-84
2023/04/20 05:52:02;;;;;;;8.05;5.22;;;19.30;42.60;;;;;;6209884;23;20026;-83
2023/04/20 05:54:28;;;;;;;8.13;5.10;;;19.40;42.90;;;;;;6209632;23;20016;-82
2023/04/20 05:56:54;;;;;;;6.68;4.82;;;19.50;42.50;;;;;;6209545;23;20012;-85
2023/04/20 05:59:21;;;;;;;8.15;5.07;;;19.60;42.90;;;;;;6183074;23;20024;-85
2023/04/20 06:01:47;;;;;;;9.48;5.22;;;19.70;42.10;;;;;;6209873;23;20042;-81
2023/04/20 06:04:13;;;;;;;6.68;4.78;;;19.80;41.80;;;;;;6183003;23;20040;-80
2023/04/20 06:06:38;;;;;;;7.72;5.10;;;19.90;42.00;;;;;;6209259;23;20058;-84
2023/04/20 06:09:04;;;;;;;5.20;4.40;;;19.90;41.40;;;;;;6183685;23;20031;-83
2023/04/20 06:11:30;;;;;;;5.90;5.18;;;20.00;40.90;;;;;;6209422;23;20222;-80
2023/04/20 06:13:57;;;;;;;7.65;4.70;;;20.10;41.00;;;;;;6182908;23;20271;-85
2023/04/20 06:16:23;;;;;;;7.93;4.97;;;20.20;40.90;;;;;;6209671;23;20017;-82
2023/04/20 06:18:49;;;;;;;8.07;4.82;;;20.30;40.20;;;;;;6182938;23;20066;-84
2023/04/20 06:21:16;;;;;;;5.90;4.30;;;20.40;40.30;;;;;;6209930;23;20013;-79
2023/04/20 06:23:43;;;;;;;6.00;4.88;;;20.50;40.00;;;;;;6183213;23;20051;-84
2023/04/20 06:26:10;;;;;;;7.25;5.07;;;20.50;40.10;;;;;;6209650;23;20099;-81
2023/04/20 06:28:36;;;;;;;6.72;4.85;;;20.60;40.00;;;;;;6209342;23;20048;-85
2023/04/20 06:31:03;;;;;;;7.55;5.45;;;20.70;39.90;;;;;;6209681;23;20024;-84
2023/04/20 06:33:29;;;;;;;8.98;5.15;;;20.80;39.30;;;;;;6210096;23;20040;-85
2023/04/20 06:35:55;;;;;;;7.53;5.07;;;20.90;39.50;;;;;;6182808;23;20062;-81
2023/04/20 06:38:22;;;;;;;6.40;4.30;;;20.90;38.90;;;;;;6182453;23;20028;-83
2023/04/20 06:40:49;;;;;;;7.18;4.53;;;21.00;38.40;;;;;;6209656;23;20021;-82
2023/04/20 06:43:15;;;;;;;4.78;4.13;;;21.00;37.90;;;;;;6209165;23;20027;-77
2023/04/20 06:45:40;;;;;;;7.75;4.53;;;21.10;38.50;;;;;;6209498;23;20012;-81
2023/04/20 06:48:07;;;;;;;5.95;4.20;;;21.10;38.10;;;;;;6183434;23;20122;-80
2023/04/20 06:50:33;;;;;;;4.38;3.97;;;21.20;37.90;;;;;;6209490;23;20031;-80
2023/04/20 06:53:01;;;;;;;4.78;4.20;;;21.20;37.40;;;;;;6208789;23;20020;-83
2023/04/20 06:55:27;;;;;;;5.20;4.10;;;21.20;37.50;;;;;;6209221;23;20565;-81
2023/04/20 06:57:53;;;;;;;6.30;3.92;;;21.30;37.20;;;;;;6209050;23;20024;-82
2023/04/20 07:00:19;;;;;;;6.53;3.72;;;21.30;37.00;;;;;;6183924;23;20016;-76
2023/04/20 07:02:49;;;;;;;5.40;3.80;;;21.40;36.80;;;;;;6208565;23;20369;-75
2023/04/20 07:05:16;;;;;;;4.70;3.75;;;21.40;37.20;;;;;;6208893;23;20100;-74
2023/04/20 07:07:42;;;;;;;4.43;3.67;;;21.40;37.00;;;;;;6208624;23;20070;-76
2023/04/20 07:10:10;;;;;;;5.07;4.05;;;21.50;37.20;;;;;;6208625;23;20021;-75
2023/04/20 07:12:36;;;;;;;4.38;3.72;;;21.50;37.20;;;;;;6209047;23;20395;-76
2023/04/20 07:15:04;;;;;;;4.65;3.65;;;21.60;37.20;;;;;;6209522;23;20356;-76
2023/04/20 07:17:30;;;;;;;4.22;3.35;;;21.60;36.50;;;;;;6208154;23;20024;-75
2023/04/20 07:19:57;;;;;;;4.75;3.42;;;21.70;37.10;;;;;;6207827;23;20503;-78
2023/04/20 07:22:24;;;;;;;4.20;3.40;;;21.70;36.70;;;;;;6208851;23;20107;-75
2023/04/20 07:24:50;;;;;;;4.10;3.70;;;21.70;37.20;;;;;;6208625;23;20396;-75
2023/04/20 07:27:17;;;;;;;4.32;3.30;;;21.80;37.30;;;;;;6208843;23;20016;-76
2023/04/20 07:29:43;;;;;;;5.03;3.33;;;21.80;36.90;;;;;;6207632;23;20048;-75
2023/04/20 07:32:09;;;;;;;5.97;3.25;;;21.80;37.40;;;;;;6208394;23;20029;-76
2023/04/20 07:34:35;;;;;;;6.57;3.45;;;21.90;36.70;;;;;;6208215;23;20083;-77
2023/04/20 07:37:01;;;;;;;4.32;3.42;;;21.90;37.00;;;;;;6208203;23;20472;-77
2023/04/20 07:39:29;;;;;;;4.20;3.60;;;21.90;36.70;;;;;;6209191;23;20038;-77
2023/04/20 07:41:55;;;;;;;4.03;3.28;;;22.00;37.10;;;;;;6208244;23;20028;-77
2023/04/20 07:44:22;;;;;;;6.07;3.58;;;22.00;37.70;;;;;;6208332;23;20020;-78
2023/04/20 07:46:48;;;;;;;3.75;3.10;;;22.10;38.50;;;;;;6208856;23;20099;-76
2023/04/20 07:49:14;;;;;;;3.92;3.28;;;22.10;37.40;;;;;;6207893;23;20012;-77
2023/04/20 07:51:41;;;;;;;4.20;3.38;;;22.10;37.10;;;;;;6207885;23;20020;-78
2023/04/20 07:54:07;;;;;;;5.53;3.53;;;22.20;36.10;;;;;;6208840;23;20023;-77
2023/04/20 07:56:33;;;;;;;4.20;3.42;;;22.20;36.10;;;;;;6207518;23;20573;-75
2023/04/20 07:58:59;;;;;;;3.88;3.33;;;22.10;36.20;;;;;;6207939;23;20035;-77
2023/04/20 08:01:25;;;;;;;4.07;3.38;;;22.20;37.50;;;;;;6208429;23;20020;-75
2023/04/20 08:03:53;;;;;;;4.90;3.40;;;22.20;37.10;;;;;;6181012;23;20051;-73
2023/04/20 08:06:19;;;;;;;3.95;3.10;;;22.20;36.90;;;;;;6208829;23;20016;-75
2023/04/20 08:08:45;;;;;;;3.55;3.25;;;22.20;36.90;;;;;;6208886;23;20016;-77
2023/04/20 08:11:12;;;;;;;3.47;3.17;;;22.30;37.50;;;;;;6208688;23;20471;-75
2023/04/20 08:13:38;;;;;;;3.50;3.20;;;22.30;37.50;;;;;;6208280;23;20055;-78
2023/04/20 08:16:04;;;;;;;4.85;3.47;;;22.30;37.60;;;;;;6208403;23;20020;-77
2023/04/20 08:18:30;;;;;;;3.13;2.85;;;22.30;37.50;;;;;;6208308;23;20215;-75
2023/04/20 08:20:56;;;;;;;3.92;3.30;;;22.30;37.60;;;;;;6207977;23;20023;-74
2023/04/20 08:23:26;;;;;;;4.38;3.17;;;22.30;37.20;;;;;;6181937;23;20021;-74
2023/04/20 08:25:53;;;;;;;4.35;3.60;;;22.40;36.80;;;;;;6207590;23;20016;-73
2023/04/20 08:28:21;;;;;;;4.97;2.83;;;22.30;36.90;;;;;;6207812;23;20063;-78
2023/04/20 08:30:47;;;;;;;5.28;3.47;;;22.40;36.50;;;;;;6207463;23;20373;-76
2023/04/20 08:33:13;;;;;;;2.92;2.72;;;22.40;37.50;;;;;;6208012;23;20008;-75
2023/04/20 08:35:39;;;;;;;3.72;3.08;;;22.40;38.50;;;;;;6156378;23;20016;-76
2023/04/20 08:38:05;;;;;;;3.22;2.92;;;22.40;39.10;;;;;;6208152;23;20047;-75
2023/04/20 08:40:32;;;;;;;3.25;2.95;;;22.40;38.60;;;;;;6181143;23;20091;-75
2023/04/20 08:43:00;;;;;;;3.88;3.00;;;22.40;38.30;;;;;;6207907;23;20360;-75
2023/04/20 08:45:27;;;;;;;3.78;2.60;;;22.40;38.20;;;;;;6182205;23;20412;-75
2023/04/20 08:47:54;;;;;;;3.30;3.00;;;22.50;38.70;;;;;;6181065;23;20024;-75
2023/04/20 08:50:21;;;;;;;2.55;2.35;;;22.50;38.50;;;;;;6156612;23;20443;-74
2023/04/20 08:52:47;;;;;;;3.90;2.95;;;22.50;38.70;;;;;;6181307;23;20372;-75
2023/04/20 08:55:17;;;;;;;3.10;2.75;;;22.50;37.90;;;;;;6207399;23;20029;-73
2023/04/20 08:57:43;;;;;;;3.83;3.30;;;22.50;37.30;;;;;;6208336;23;20019;-81
2023/04/20 09:00:10;;;;;;;3.20;2.90;;;22.50;36.80;;;;;;6208648;23;20087;-77
2023/04/20 09:02:47;;;;;;;3.38;3.08;;;22.50;36.50;;;;;;6207672;23;20099;-76
2023/04/20 09:05:13;;;;;;;2.90;2.70;;;22.50;36.90;;;;;;6207949;23;20016;-74
2023/04/20 09:07:39;;;;;;;2.88;2.67;;;22.50;36.60;;;;;;6207612;23;20468;-76
2023/04/20 09:10:05;;;;;;;4.55;2.80;;;22.40;36.60;;;;;;6207536;23;20008;-75
2023/04/20 09:12:43;;;;;;;3.65;3.10;;;22.40;36.90;;;;;;6208409;23;20036;-81
2023/04/20 09:15:10;;;;;;;3.88;3.45;;;22.40;36.80;;;;;;6208003;23;20027;-72
2023/04/20 09:17:39;;;;;;;3.90;3.55;;;22.30;36.60;;;;;;6207720;23;20024;-78
2023/04/20 09:20:05;;;;;;;4.80;3.42;;;22.30;36.90;;;;;;6153433;23;20495;-78
2023/04/20 09:22:33;;;;;;;4.80;3.35;;;22.30;37.40;;;;;;6181039;23;20093;-75
2023/04/20 09:25:00;;;;;;;4.47;3.50;;;22.30;38.60;;;;;;6181268;23;20107;-76
2023/04/20 09:27:26;;;;;;;3.92;3.53;;;22.20;38.80;;;;;;6181694;23;20040;-75
2023/04/20 09:30:00;;;;;;;3.83;3.42;;;22.20;38.30;;;;;;6207701;23;20052;-77
2023/04/20 09:32:27;;;;;;;7.85;5.88;;;22.20;38.90;;;;;;6208211;23;20337;-78
2023/04/20 09:34:53;;;;;;;5.97;4.95;;;22.20;40.00;;;;;;6181087;23;20498;-76
2023/04/20 09:37:21;;;;;;;5.55;3.55;;;22.20;40.60;;;;;;6207652;23;20032;-78
2023/04/20 09:39:47;;;;;;;3.88;3.20;;;22.20;39.30;;;;;;6207402;23;20015;-78
2023/04/20 09:42:15;;;;;;;5.53;3.78;;;22.20;39.40;;;;;;6209467;23;20012;-74
2023/04/20 09:44:42;;;;;;;7.03;3.85;;;22.20;39.60;;;;;;6183043;23;20036;-76
2023/04/20 09:47:20;;;;;;;4.45;3.30;;;22.20;38.60;;;;;;6209994;23;20025;-77
2023/04/20 09:49:46;;;;;;;5.35;3.60;;;22.20;38.80;;;;;;6208853;23;20079;-75
2023/04/20 09:52:17;;;;;;;5.32;3.40;;;22.20;38.30;;;;;;6182745;23;20070;-74
2023/04/20 09:54:43;;;;;;;5.30;3.65;;;22.20;37.30;;;;;;6182724;23;20027;-78
2023/04/20 09:57:11;;;;;;;5.78;3.60;;;22.10;37.90;;;;;;6210446;23;20086;-75
2023/04/20 09:59:38;;;;;;;4.35;3.60;;;22.20;38.40;;;;;;6209391;23;20024;-75
2023/04/20 10:02:08;;;;;;;3.63;3.20;;;22.20;39.10;;;;;;6209971;23;20127;-79
2023/04/20 10:04:34;;;;;;;3.70;3.30;;;22.20;37.00;;;;;;6209288;23;20031;-77
2023/04/20 10:07:04;;;;;;;4.70;3.53;;;22.10;36.50;;;;;;6209655;23;20021;-77
2023/04/20 10:09:32;;;;;;;4.10;3.25;;;22.10;36.90;;;;;;6159007;23;20082;-77
2023/04/20 10:12:08;;;;;;;4.70;3.33;;;22.10;36.70;;;;;;6209694;23;20025;-79
2023/04/20 10:14:34;;;;;;;3.20;2.70;;;22.10;36.90;;;;;;6210087;23;20079;-79
2023/04/20 10:17:00;;;;;;;5.78;3.20;;;22.00;36.30;;;;;;6183027;23;20346;-79
2023/04/20 10:19:43;;;;;;;4.97;3.35;;;22.00;36.00;;;;;;6209714;23;20268;-77
2023/04/20 10:22:12;;;;;;;4.45;3.38;;;22.00;36.80;;;;;;6209827;23;20554;-79
2023/04/20 10:24:38;;;;;;;5.47;3.40;;;22.00;35.20;;;;;;6208984;23;20067;-79
2023/04/20 10:27:25;;;;;;;3.25;2.95;;;22.00;35.50;;;;;;6210222;23;20381;-79
2023/04/20 10:29:51;;;;;;;4.03;3.15;;;21.90;35.90;;;;;;6209925;23;20020;-79
2023/04/20 10:32:24;;;;;;;3.47;3.13;;;21.90;35.70;;;;;;6183011;23;20027;-79
2023/04/20 10:35:05;;;;;;;3.40;3.10;;;22.00;35.40;;;;;;6209681;23;20460;-79
2023/04/20 10:37:31;;;;;;;3.78;2.95;;;21.90;35.60;;;;;;6209096;23;20024;-79
2023/04/20 10:39:58;;;;;;;3.55;3.17;;;21.90;35.60;;;;;;6209064;23;20017;-80
2023/04/20 10:42:25;;;;;;;3.80;3.00;;;21.90;35.20;;;;;;6183844;23;20082;-78
2023/04/20 10:44:52;;;;;;;3.15;2.83;;;21.90;34.50;;;;;;6209767;23;20055;-79
2023/04/20 10:47:32;;;;;;;4.45;3.13;;;21.90;34.50;;;;;;6182535;23;20048;-78
2023/04/20 10:50:10;;;;;;;3.70;2.90;;;21.90;34.60;;;;;;6208559;23;20032;-79
2023/04/20 10:52:38;;;;;;;3.67;3.30;;;21.80;34.60;;;;;;6209007;23;20032;-79
2023/04/20 10:55:07;;;;;;;3.30;2.67;;;21.80;34.90;;;;;;6209142;23;20032;-79
2023/04/20 10:57:33;;;;;;;3.10;2.80;;;21.80;34.90;;;;;;6209326;23;20517;-78
2023/04/20 10:59:59;;;;;;;3.60;3.03;;;21.80;34.50;;;;;;6209718;23;20013;-79
2023/04/20 11:02:26;;;;;;;4.47;3.05;;;21.80;34.50;;;;;;6209457;23;20024;-78
2023/04/20 11:04:54;;;;;;;3.92;2.95;;;21.80;34.10;;;;;;6182342;23;20100;-77
2023/04/20 11:07:20;;;;;;;4.38;3.10;;;21.80;34.30;;;;;;6209213;23;20016;-78
2023/04/20 11:09:54;;;;;;;3.28;2.92;;;21.80;34.60;;;;;;6209065;23;20008;-79
2023/04/20 11:12:20;;;;;;;3.13;2.83;;;21.80;34.90;;;;;;6209951;23;20040;-79
2023/04/20 11:15:01;;;;;;;3.85;2.85;;;21.80;35.10;;;;;;6208679;23;20021;-79
2023/04/20 11:17:35;;;;;;;3.55;3.05;;;21.80;34.60;;;;;;6157688;23;20027;-79
2023/04/20 11:20:12;;;;;;;3.80;3.40;;;21.70;34.20;;;;;;6209467;23;20025;-79
2023/04/20 11:22:39;;;;;;;4.20;3.30;;;21.70;34.30;;;;;;6182319;23;20472;-79
2023/04/20 11:25:09;;;;;;;3.85;3.38;;;21.70;34.40;;;;;;6209151;23;20451;-79
2023/04/20 11:27:36;;;;;;;5.43;3.03;;;21.70;34.50;;;;;;6181886;23;20012;-79
2023/04/20 11:30:04;;;;;;;4.00;3.17;;;21.70;34.60;;;;;;6209347;23;20008;-79
2023/04/20 11:32:32;;;;;;;4.30;3.50;;;21.70;34.70;;;;;;6209145;23;20027;-79
2023/04/20 11:35:00;;;;;;;5.10;3.30;;;21.70;35.20;;;;;;6209258;23;20067;-79
2023/04/20 11:37:27;;;;;;;4.07;3.42;;;21.70;35.40;;;;;;6208875;23;20368;-79
2023/04/20 11:40:07;;;;;;;3.42;2.85;;;21.70;35.90;;;;;;6208232;23;20067;-78
2023/04/20 11:42:33;;;;;;;3.88;3.33;;;21.70;36.20;;;;;;6208546;23;20013;-77
2023/04/20 11:44:59;;;;;;;4.93;4.10;;;21.70;36.50;;;;;;6209230;23;20416;-79
2023/04/20 11:47:26;;;;;;;4.18;3.05;;;21.60;36.40;;;;;;6208643;23;20024;-79
2023/04/20 11:49:52;;;;;;;5.03;3.50;;;21.70;36.60;;;;;;6208752;23;20032;-79
2023/04/20 11:52:18;;;;;;;3.80;3.33;;;21.70;36.80;;;;;;6208618;23;20016;-79
2023/04/20 11:54:44;;;;;;;4.18;3.38;;;21.60;36.90;;;;;;6208125;23;20099;-81
2023/04/20 11:57:10;;;;;;;4.50;3.45;;;21.70;37.00;;;;;;6208662;23;20015;-81
2023/04/20 11:59:36;;;;;;;4.07;3.20;;;21.70;37.00;;;;;;6208181;23;20016;-77
2023/04/20 12:02:03;;;;;;;3.63;3.15;;;21.70;36.70;;;;;;6208678;23;20100;-80
2023/04/20 12:04:30;;;;;;;4.70;3.38;;;21.70;36.80;;;;;;6207490;23;20094;-78
2023/04/20 12:07:00;;;;;;;4.82;3.13;;;21.70;37.20;;;;;;6181633;23;20020;-79
2023/04/20 12:09:27;;;;;;;4.45;3.28;;;21.70;37.40;;;;;;6158275;23;20036;-77
2023/04/20 12:11:53;;;;;;;3.97;3.45;;;21.80;37.20;;;;;;6208744;23;20032;-78
2023/04/20 12:14:19;;;;;;;5.22;3.40;;;21.70;36.10;;;;;;6209555;23;20021;-85
2023/04/20 12:16:45;;;;;;;3.80;3.40;;;21.70;35.40;;;;;;6183269;23;20023;-91
2023/04/20 12:19:11;;;;;;;3.70;3.40;;;21.70;34.90;;;;;;6210337;23;20012;-90
2023/04/20 12:21:37;;;;;;;4.82;3.42;;;21.60;34.20;;;;;;6182984;23;20698;-83
2023/04/20 12:24:03;;;;;;;6.30;3.72;;;21.60;33.70;;;;;;6184389;23;20016;-88
2023/04/20 12:26:29;;;;;;;5.57;3.65;;;21.50;33.80;;;;;;6183701;23;20028;-88
2023/04/20 12:28:56;;;;;;;5.72;3.53;;;21.50;34.00;;;;;;6183110;23;20032;-88
2023/04/20 12:31:23;;;;;;;5.07;3.63;;;21.40;33.80;;;;;;6183257;23;20016;-86
2023/04/20 12:33:49;;;;;;;5.57;3.83;;;21.40;33.50;;;;;;6182608;23;20016;-85
2023/04/20 12:36:16;;;;;;;4.38;3.53;;;21.40;33.30;;;;;;6210051;23;20005;-85
2023/04/20 12:38:42;;;;;;;3.60;3.25;;;21.30;33.20;;;;;;6209883;23;20028;-84
2023/04/20 12:41:13;;;;;;;4.47;3.60;;;21.20;33.50;;;;;;6209726;23;20364;-86
2023/04/20 12:43:39;;;;;;;3.78;3.40;;;21.20;33.30;;;;;;6158668;23;20016;-85
2023/04/20 12:46:05;;;;;;;5.03;3.60;;;21.20;32.90;;;;;;6183444;23;20009;-85
2023/04/20 12:48:31;;;;;;;5.45;3.70;;;21.10;33.20;;;;;;6184223;23;20363;-85